sensor_id;sensor_type;location;lat;lon;timestamp;P1;durP1;ratioP1;P2;durP2;ratioP2
52468;SDS011;38381;53.688;10.776;2023-06-22T00:04:32;3.33;;;2.47;;
52468;SDS011;38381;53.688;10.776;2023-06-22T00:09:33;5.63;;;2.37;;
52468;SDS011;38381;53.688;10.776;2023-06-22T00:14:33;4.78;;;3.20;;
52468;SDS011;38381;53.688;10.776;2023-06-22T00:19:33;2.42;;;2.22;;
52468;SDS011;38381;53.688;10.776;2023-06-22T00:24:35;3.83;;;2.97;;
52468;SDS011;38381;53.688;10.776;2023-06-22T00:29:36;5.75;;;3.47;;
52468;SDS011;38381;53.688;10.776;2023-06-22T00:34:36;4.47;;;2.80;;
52468;SDS011;38381;53.688;10.776;2023-06-22T00:39:37;3.65;;;2.95;;
52468;SDS011;38381;53.688;10.776;2023-06-22T00:44:37;4.18;;;3.20;;
52468;SDS011;38381;53.688;10.776;2023-06-22T00:49:37;4.80;;;2.83;;
52468;SDS011;38381;53.688;10.776;2023-06-22T00:54:41;4.05;;;3.00;;
52468;SDS011;38381;53.688;10.776;2023-06-22T00:59:45;3.58;;;2.45;;
52468;SDS011;38381;53.688;10.776;2023-06-22T01:14:54;3.20;;;2.67;;
52468;SDS011;38381;53.688;10.776;2023-06-22T01:19:59;3.15;;;2.60;;
52468;SDS011;38381;53.688;10.776;2023-06-22T01:30:20;4.03;;;2.80;;
52468;SDS011;38381;53.688;10.776;2023-06-22T01:35:20;3.35;;;3.00;;
52468;SDS011;38381;53.688;10.776;2023-06-22T01:40:21;3.63;;;3.03;;
52468;SDS011;38381;53.688;10.776;2023-06-22T01:45:23;3.30;;;2.80;;
52468;SDS011;38381;53.688;10.776;2023-06-22T01:50:24;3.15;;;2.55;;
52468;SDS011;38381;53.688;10.776;2023-06-22T01:55:25;3.05;;;2.75;;
52468;SDS011;38381;53.688;10.776;2023-06-22T02:00:25;3.03;;;2.72;;
52468;SDS011;38381;53.688;10.776;2023-06-22T02:05:41;4.13;;;3.30;;
52468;SDS011;38381;53.688;10.776;2023-06-22T02:10:48;5.90;;;3.35;;
52468;SDS011;38381;53.688;10.776;2023-06-22T02:15:49;4.23;;;3.20;;
52468;SDS011;38381;53.688;10.776;2023-06-22T02:20:50;3.78;;;3.03;;
52468;SDS011;38381;53.688;10.776;2023-06-22T02:25:50;4.35;;;3.45;;
52468;SDS011;38381;53.688;10.776;2023-06-22T02:30:51;3.90;;;3.28;;
52468;SDS011;38381;53.688;10.776;2023-06-22T02:35:51;4.10;;;2.97;;
52468;SDS011;38381;53.688;10.776;2023-06-22T02:40:52;3.50;;;3.03;;
52468;SDS011;38381;53.688;10.776;2023-06-22T02:45:52;3.95;;;3.55;;
52468;SDS011;38381;53.688;10.776;2023-06-22T02:50:53;4.57;;;2.78;;
52468;SDS011;38381;53.688;10.776;2023-06-22T02:55:53;3.10;;;2.72;;
52468;SDS011;38381;53.688;10.776;2023-06-22T03:00:53;3.47;;;2.92;;
52468;SDS011;38381;53.688;10.776;2023-06-22T03:05:54;3.00;;;2.70;;
52468;SDS011;38381;53.688;10.776;2023-06-22T03:10:54;4.77;;;3.57;;
52468;SDS011;38381;53.688;10.776;2023-06-22T03:15:55;3.78;;;3.00;;
52468;SDS011;38381;53.688;10.776;2023-06-22T03:20:56;4.95;;;3.05;;
52468;SDS011;38381;53.688;10.776;2023-06-22T03:25:57;5.00;;;2.90;;
52468;SDS011;38381;53.688;10.776;2023-06-22T03:30:57;4.47;;;2.80;;
52468;SDS011;38381;53.688;10.776;2023-06-22T03:35:58;4.03;;;2.97;;
52468;SDS011;38381;53.688;10.776;2023-06-22T03:40:58;3.27;;;2.73;;
52468;SDS011;38381;53.688;10.776;2023-06-22T03:45:59;3.47;;;2.95;;
52468;SDS011;38381;53.688;10.776;2023-06-22T03:51:00;4.53;;;3.15;;
52468;SDS011;38381;53.688;10.776;2023-06-22T03:56:01;3.70;;;2.63;;
52468;SDS011;38381;53.688;10.776;2023-06-22T04:01:01;5.07;;;3.08;;
52468;SDS011;38381;53.688;10.776;2023-06-22T04:06:01;4.85;;;3.03;;
52468;SDS011;38381;53.688;10.776;2023-06-22T04:11:02;3.53;;;3.22;;
52468;SDS011;38381;53.688;10.776;2023-06-22T04:16:02;3.63;;;2.73;;
52468;SDS011;38381;53.688;10.776;2023-06-22T04:21:04;4.17;;;3.47;;
52468;SDS011;38381;53.688;10.776;2023-06-22T04:26:05;4.88;;;3.30;;
52468;SDS011;38381;53.688;10.776;2023-06-22T04:31:05;5.55;;;3.85;;
52468;SDS011;38381;53.688;10.776;2023-06-22T04:36:06;3.97;;;3.58;;
52468;SDS011;38381;53.688;10.776;2023-06-22T04:41:06;3.80;;;3.37;;
52468;SDS011;38381;53.688;10.776;2023-06-22T04:46:06;5.97;;;4.90;;
52468;SDS011;38381;53.688;10.776;2023-06-22T04:51:07;5.40;;;4.07;;
52468;SDS011;38381;53.688;10.776;2023-06-22T04:56:08;3.60;;;3.10;;
52468;SDS011;38381;53.688;10.776;2023-06-22T05:01:09;6.22;;;4.10;;
52468;SDS011;38381;53.688;10.776;2023-06-22T05:06:09;8.17;;;3.90;;
52468;SDS011;38381;53.688;10.776;2023-06-22T05:11:09;6.17;;;4.27;;
52468;SDS011;38381;53.688;10.776;2023-06-22T05:16:10;5.87;;;4.63;;
52468;SDS011;38381;53.688;10.776;2023-06-22T05:21:10;5.88;;;4.40;;
52468;SDS011;38381;53.688;10.776;2023-06-22T05:26:11;4.63;;;4.00;;
52468;SDS011;38381;53.688;10.776;2023-06-22T05:31:14;9.15;;;4.65;;
52468;SDS011;38381;53.688;10.776;2023-06-22T05:36:15;6.68;;;3.75;;
52468;SDS011;38381;53.688;10.776;2023-06-22T05:41:16;4.50;;;4.00;;
52468;SDS011;38381;53.688;10.776;2023-06-22T05:46:16;8.13;;;4.85;;
52468;SDS011;38381;53.688;10.776;2023-06-22T05:51:17;7.03;;;3.90;;
52468;SDS011;38381;53.688;10.776;2023-06-22T05:56:17;6.80;;;4.37;;
52468;SDS011;38381;53.688;10.776;2023-06-22T06:01:18;5.30;;;4.00;;
52468;SDS011;38381;53.688;10.776;2023-06-22T06:06:18;6.43;;;4.07;;
52468;SDS011;38381;53.688;10.776;2023-06-22T06:11:28;5.22;;;4.13;;
52468;SDS011;38381;53.688;10.776;2023-06-22T06:16:29;3.35;;;2.95;;
52468;SDS011;38381;53.688;10.776;2023-06-22T06:21:29;5.53;;;3.70;;
52468;SDS011;38381;53.688;10.776;2023-06-22T06:26:29;5.18;;;4.07;;
52468;SDS011;38381;53.688;10.776;2023-06-22T06:31:32;5.93;;;4.82;;
52468;SDS011;38381;53.688;10.776;2023-06-22T06:36:33;5.07;;;3.58;;
52468;SDS011;38381;53.688;10.776;2023-06-22T06:41:34;5.80;;;3.40;;
52468;SDS011;38381;53.688;10.776;2023-06-22T06:46:34;3.00;;;2.37;;
52468;SDS011;38381;53.688;10.776;2023-06-22T06:51:34;6.67;;;2.90;;
52468;SDS011;38381;53.688;10.776;2023-06-22T06:56:35;3.73;;;2.57;;
52468;SDS011;38381;53.688;10.776;2023-06-22T07:01:35;2.75;;;2.20;;
52468;SDS011;38381;53.688;10.776;2023-06-22T07:06:36;4.60;;;2.60;;
52468;SDS011;38381;53.688;10.776;2023-06-22T07:16:38;6.03;;;3.03;;
52468;SDS011;38381;53.688;10.776;2023-06-22T07:21:38;3.47;;;2.67;;
52468;SDS011;38381;53.688;10.776;2023-06-22T07:26:41;6.15;;;2.28;;
52468;SDS011;38381;53.688;10.776;2023-06-22T07:31:46;5.40;;;2.50;;
52468;SDS011;38381;53.688;10.776;2023-06-22T07:36:47;3.45;;;2.10;;
52468;SDS011;38381;53.688;10.776;2023-06-22T07:41:47;3.87;;;2.47;;
52468;SDS011;38381;53.688;10.776;2023-06-22T07:46:47;2.80;;;2.13;;
52468;SDS011;38381;53.688;10.776;2023-06-22T07:51:48;3.67;;;2.33;;
52468;SDS011;38381;53.688;10.776;2023-06-22T07:56:48;3.07;;;2.23;;
52468;SDS011;38381;53.688;10.776;2023-06-22T08:01:49;1.97;;;1.77;;
52468;SDS011;38381;53.688;10.776;2023-06-22T08:06:49;5.73;;;2.37;;
52468;SDS011;38381;53.688;10.776;2023-06-22T08:11:50;2.50;;;2.30;;
52468;SDS011;38381;53.688;10.776;2023-06-22T08:16:50;4.50;;;2.43;;
52468;SDS011;38381;53.688;10.776;2023-06-22T08:21:50;5.53;;;3.13;;
52468;SDS011;38381;53.688;10.776;2023-06-22T08:26:51;3.57;;;2.37;;
52468;SDS011;38381;53.688;10.776;2023-06-22T08:31:52;3.20;;;2.53;;
52468;SDS011;38381;53.688;10.776;2023-06-22T08:36:52;3.10;;;2.47;;
52468;SDS011;38381;53.688;10.776;2023-06-22T08:41:53;3.17;;;2.17;;
52468;SDS011;38381;53.688;10.776;2023-06-22T08:46:53;3.33;;;2.30;;
52468;SDS011;38381;53.688;10.776;2023-06-22T08:51:53;5.07;;;2.50;;
52468;SDS011;38381;53.688;10.776;2023-06-22T08:56:56;4.93;;;2.40;;
52468;SDS011;38381;53.688;10.776;2023-06-22T09:01:56;3.53;;;2.80;;
52468;SDS011;38381;53.688;10.776;2023-06-22T09:06:57;2.63;;;2.13;;
52468;SDS011;38381;53.688;10.776;2023-06-22T09:11:57;2.57;;;2.30;;
52468;SDS011;38381;53.688;10.776;2023-06-22T09:16:58;4.33;;;2.37;;
52468;SDS011;38381;53.688;10.776;2023-06-22T09:21:58;3.00;;;2.10;;
52468;SDS011;38381;53.688;10.776;2023-06-22T09:32:00;3.30;;;2.60;;
52468;SDS011;38381;53.688;10.776;2023-06-22T09:37:01;5.43;;;2.40;;
52468;SDS011;38381;53.688;10.776;2023-06-22T09:42:02;3.23;;;2.00;;
52468;SDS011;38381;53.688;10.776;2023-06-22T09:47:02;3.20;;;2.33;;
52468;SDS011;38381;53.688;10.776;2023-06-22T09:52:03;2.83;;;1.63;;
52468;SDS011;38381;53.688;10.776;2023-06-22T09:57:04;3.57;;;1.80;;
52468;SDS011;38381;53.688;10.776;2023-06-22T10:02:05;2.20;;;1.73;;
52468;SDS011;38381;53.688;10.776;2023-06-22T10:07:06;3.55;;;1.85;;
52468;SDS011;38381;53.688;10.776;2023-06-22T10:12:06;1.97;;;1.77;;
52468;SDS011;38381;53.688;10.776;2023-06-22T10:17:07;3.43;;;2.23;;
52468;SDS011;38381;53.688;10.776;2023-06-22T10:22:07;1.80;;;1.60;;
52468;SDS011;38381;53.688;10.776;2023-06-22T10:27:08;2.30;;;2.10;;
52468;SDS011;38381;53.688;10.776;2023-06-22T10:32:08;2.77;;;2.07;;
52468;SDS011;38381;53.688;10.776;2023-06-22T10:37:08;2.90;;;2.40;;
52468;SDS011;38381;53.688;10.776;2023-06-22T10:42:09;4.40;;;2.47;;
52468;SDS011;38381;53.688;10.776;2023-06-22T10:47:09;3.17;;;2.70;;
52468;SDS011;38381;53.688;10.776;2023-06-22T10:52:11;2.83;;;2.10;;
52468;SDS011;38381;53.688;10.776;2023-06-22T10:57:11;3.37;;;2.30;;
52468;SDS011;38381;53.688;10.776;2023-06-22T11:02:12;2.30;;;2.03;;
52468;SDS011;38381;53.688;10.776;2023-06-22T11:07:12;3.13;;;2.23;;
52468;SDS011;38381;53.688;10.776;2023-06-22T11:12:13;3.25;;;2.28;;
52468;SDS011;38381;53.688;10.776;2023-06-22T11:17:14;4.40;;;2.27;;
52468;SDS011;38381;53.688;10.776;2023-06-22T11:22:14;3.80;;;2.50;;
52468;SDS011;38381;53.688;10.776;2023-06-22T11:27:14;2.50;;;2.20;;
52468;SDS011;38381;53.688;10.776;2023-06-22T11:32:15;3.53;;;2.77;;
52468;SDS011;38381;53.688;10.776;2023-06-22T11:37:16;3.03;;;2.40;;
52468;SDS011;38381;53.688;10.776;2023-06-22T11:42:16;3.00;;;2.37;;
52468;SDS011;38381;53.688;10.776;2023-06-22T11:47:17;3.07;;;2.37;;
52468;SDS011;38381;53.688;10.776;2023-06-22T11:52:17;2.97;;;2.40;;
52468;SDS011;38381;53.688;10.776;2023-06-22T11:57:17;2.53;;;2.20;;
52468;SDS011;38381;53.688;10.776;2023-06-22T12:02:18;3.47;;;2.40;;
52468;SDS011;38381;53.688;10.776;2023-06-22T12:07:18;4.07;;;2.70;;
52468;SDS011;38381;53.688;10.776;2023-06-22T12:12:19;5.37;;;3.10;;
52468;SDS011;38381;53.688;10.776;2023-06-22T12:17:19;2.83;;;2.50;;
52468;SDS011;38381;53.688;10.776;2023-06-22T12:22:19;4.03;;;2.50;;
52468;SDS011;38381;53.688;10.776;2023-06-22T12:27:20;3.23;;;2.93;;
52468;SDS011;38381;53.688;10.776;2023-06-22T12:32:20;2.87;;;2.33;;
52468;SDS011;38381;53.688;10.776;2023-06-22T12:37:21;4.03;;;2.90;;
52468;SDS011;38381;53.688;10.776;2023-06-22T12:42:21;4.37;;;2.60;;
52468;SDS011;38381;53.688;10.776;2023-06-22T12:47:22;3.57;;;2.80;;
52468;SDS011;38381;53.688;10.776;2023-06-22T12:52:22;3.43;;;3.13;;
52468;SDS011;38381;53.688;10.776;2023-06-22T12:57:23;4.45;;;2.55;;
52468;SDS011;38381;53.688;10.776;2023-06-22T13:02:23;3.57;;;2.83;;
52468;SDS011;38381;53.688;10.776;2023-06-22T13:07:24;3.87;;;3.47;;
52468;SDS011;38381;53.688;10.776;2023-06-22T13:12:24;4.13;;;2.93;;
52468;SDS011;38381;53.688;10.776;2023-06-22T13:17:25;4.97;;;3.37;;
52468;SDS011;38381;53.688;10.776;2023-06-22T13:22:35;3.47;;;2.97;;
52468;SDS011;38381;53.688;10.776;2023-06-22T13:27:44;4.88;;;3.90;;
52468;SDS011;38381;53.688;10.776;2023-06-22T13:32:45;6.87;;;3.77;;
52468;SDS011;38381;53.688;10.776;2023-06-22T13:37:45;4.93;;;3.23;;
52468;SDS011;38381;53.688;10.776;2023-06-22T13:42:46;6.20;;;3.70;;
52468;SDS011;38381;53.688;10.776;2023-06-22T13:47:46;3.07;;;2.63;;
52468;SDS011;38381;53.688;10.776;2023-06-22T13:52:47;4.67;;;3.07;;
52468;SDS011;38381;53.688;10.776;2023-06-22T13:57:47;4.27;;;2.87;;
52468;SDS011;38381;53.688;10.776;2023-06-22T14:02:48;7.37;;;3.80;;
52468;SDS011;38381;53.688;10.776;2023-06-22T14:07:48;3.50;;;2.70;;
52468;SDS011;38381;53.688;10.776;2023-06-22T14:12:49;5.73;;;3.30;;
52468;SDS011;38381;53.688;10.776;2023-06-22T14:17:49;9.20;;;3.77;;
52468;SDS011;38381;53.688;10.776;2023-06-22T14:22:50;5.27;;;3.27;;
52468;SDS011;38381;53.688;10.776;2023-06-22T14:27:50;4.03;;;3.37;;
52468;SDS011;38381;53.688;10.776;2023-06-22T14:32:51;3.87;;;3.10;;
52468;SDS011;38381;53.688;10.776;2023-06-22T14:37:51;5.00;;;2.70;;
52468;SDS011;38381;53.688;10.776;2023-06-22T14:42:51;5.47;;;3.63;;
52468;SDS011;38381;53.688;10.776;2023-06-22T14:47:52;3.97;;;2.93;;
52468;SDS011;38381;53.688;10.776;2023-06-22T14:52:52;4.50;;;3.00;;
52468;SDS011;38381;53.688;10.776;2023-06-22T14:57:53;4.17;;;2.90;;
52468;SDS011;38381;53.688;10.776;2023-06-22T15:02:53;3.73;;;3.10;;
52468;SDS011;38381;53.688;10.776;2023-06-22T15:07:53;4.03;;;2.50;;
52468;SDS011;38381;53.688;10.776;2023-06-22T15:12:54;3.77;;;2.53;;
52468;SDS011;38381;53.688;10.776;2023-06-22T15:17:54;5.40;;;2.73;;
52468;SDS011;38381;53.688;10.776;2023-06-22T15:22:56;2.20;;;2.00;;
52468;SDS011;38381;53.688;10.776;2023-06-22T15:27:57;3.28;;;2.63;;
52468;SDS011;38381;53.688;10.776;2023-06-22T15:32:57;2.07;;;1.63;;
52468;SDS011;38381;53.688;10.776;2023-06-22T15:37:58;2.43;;;1.83;;
52468;SDS011;38381;53.688;10.776;2023-06-22T15:42:59;3.53;;;1.90;;
52468;SDS011;38381;53.688;10.776;2023-06-22T15:48:00;2.43;;;1.67;;
52468;SDS011;38381;53.688;10.776;2023-06-22T15:53:00;2.10;;;1.90;;
52468;SDS011;38381;53.688;10.776;2023-06-22T15:58:01;5.20;;;2.77;;
52468;SDS011;38381;53.688;10.776;2023-06-22T16:03:01;3.97;;;2.43;;
52468;SDS011;38381;53.688;10.776;2023-06-22T16:08:02;2.90;;;2.20;;
52468;SDS011;38381;53.688;10.776;2023-06-22T16:13:02;4.40;;;2.03;;
52468;SDS011;38381;53.688;10.776;2023-06-22T16:18:03;6.67;;;2.57;;
52468;SDS011;38381;53.688;10.776;2023-06-22T16:23:05;4.90;;;2.20;;
52468;SDS011;38381;53.688;10.776;2023-06-22T16:28:05;4.60;;;2.33;;
52468;SDS011;38381;53.688;10.776;2023-06-22T16:33:06;2.43;;;1.80;;
52468;SDS011;38381;53.688;10.776;2023-06-22T16:38:06;2.30;;;1.80;;
52468;SDS011;38381;53.688;10.776;2023-06-22T16:43:07;2.27;;;1.67;;
52468;SDS011;38381;53.688;10.776;2023-06-22T16:48:07;2.27;;;1.60;;
52468;SDS011;38381;53.688;10.776;2023-06-22T16:53:08;2.33;;;1.33;;
52468;SDS011;38381;53.688;10.776;2023-06-22T16:58:09;1.40;;;1.20;;
52468;SDS011;38381;53.688;10.776;2023-06-22T17:03:15;2.13;;;1.48;;
52468;SDS011;38381;53.688;10.776;2023-06-22T17:08:19;6.22;;;2.55;;
52468;SDS011;38381;53.688;10.776;2023-06-22T17:13:21;3.03;;;1.60;;
52468;SDS011;38381;53.688;10.776;2023-06-22T17:18:22;2.58;;;1.65;;
52468;SDS011;38381;53.688;10.776;2023-06-22T17:23:26;2.13;;;1.30;;
52468;SDS011;38381;53.688;10.776;2023-06-22T17:33:29;1.30;;;1.20;;
52468;SDS011;38381;53.688;10.776;2023-06-22T17:38:29;2.33;;;1.55;;
52468;SDS011;38381;53.688;10.776;2023-06-22T17:43:30;4.32;;;1.48;;
52468;SDS011;38381;53.688;10.776;2023-06-22T17:48:30;2.92;;;1.40;;
52468;SDS011;38381;53.688;10.776;2023-06-22T17:53:32;2.17;;;1.38;;
52468;SDS011;38381;53.688;10.776;2023-06-22T17:58:32;2.90;;;1.58;;
52468;SDS011;38381;53.688;10.776;2023-06-22T18:03:33;2.25;;;1.67;;
52468;SDS011;38381;53.688;10.776;2023-06-22T18:08:33;2.43;;;1.70;;
52468;SDS011;38381;53.688;10.776;2023-06-22T18:13:34;3.13;;;2.17;;
52468;SDS011;38381;53.688;10.776;2023-06-22T18:18:36;6.63;;;1.50;;
52468;SDS011;38381;53.688;10.776;2023-06-22T18:23:39;2.35;;;1.40;;
52468;SDS011;38381;53.688;10.776;2023-06-22T18:28:41;2.85;;;1.52;;
52468;SDS011;38381;53.688;10.776;2023-06-22T18:38:56;3.17;;;1.60;;
52468;SDS011;38381;53.688;10.776;2023-06-22T18:44:01;2.60;;;1.73;;
52468;SDS011;38381;53.688;10.776;2023-06-22T18:49:07;2.00;;;1.60;;
52468;SDS011;38381;53.688;10.776;2023-06-22T18:54:16;2.15;;;1.25;;
52468;SDS011;38381;53.688;10.776;2023-06-22T19:09:47;1.88;;;1.45;;
52468;SDS011;38381;53.688;10.776;2023-06-22T19:15:21;2.38;;;1.42;;
52468;SDS011;38381;53.688;10.776;2023-06-22T19:20:32;2.70;;;1.25;;
52468;SDS011;38381;53.688;10.776;2023-06-22T19:25:35;2.38;;;1.45;;
52468;SDS011;38381;53.688;10.776;2023-06-22T19:30:36;2.30;;;1.20;;
52468;SDS011;38381;53.688;10.776;2023-06-22T19:35:37;2.00;;;1.38;;
52468;SDS011;38381;53.688;10.776;2023-06-22T19:40:38;2.25;;;1.40;;
52468;SDS011;38381;53.688;10.776;2023-06-22T19:45:41;2.15;;;1.10;;
52468;SDS011;38381;53.688;10.776;2023-06-22T19:50:42;3.58;;;1.45;;
52468;SDS011;38381;53.688;10.776;2023-06-22T19:55:46;2.57;;;1.60;;
52468;SDS011;38381;53.688;10.776;2023-06-22T20:00:50;1.70;;;1.23;;
52468;SDS011;38381;53.688;10.776;2023-06-22T20:05:55;1.95;;;1.52;;
52468;SDS011;38381;53.688;10.776;2023-06-22T20:11:07;2.88;;;1.70;;
52468;SDS011;38381;53.688;10.776;2023-06-22T20:16:08;2.28;;;1.73;;
52468;SDS011;38381;53.688;10.776;2023-06-22T20:21:09;2.33;;;1.40;;
52468;SDS011;38381;53.688;10.776;2023-06-22T20:26:11;2.33;;;1.67;;
52468;SDS011;38381;53.688;10.776;2023-06-22T20:31:11;2.80;;;1.90;;
52468;SDS011;38381;53.688;10.776;2023-06-22T20:36:12;2.35;;;1.67;;
52468;SDS011;38381;53.688;10.776;2023-06-22T20:41:16;3.30;;;1.52;;
52468;SDS011;38381;53.688;10.776;2023-06-22T20:46:17;2.63;;;1.80;;
52468;SDS011;38381;53.688;10.776;2023-06-22T20:51:17;1.97;;;1.77;;
52468;SDS011;38381;53.688;10.776;2023-06-22T20:56:17;3.05;;;1.92;;
52468;SDS011;38381;53.688;10.776;2023-06-22T21:01:18;3.53;;;1.63;;
52468;SDS011;38381;53.688;10.776;2023-06-22T21:06:18;3.80;;;1.77;;
52468;SDS011;38381;53.688;10.776;2023-06-22T21:11:19;2.13;;;1.70;;
52468;SDS011;38381;53.688;10.776;2023-06-22T21:16:19;1.95;;;1.60;;
52468;SDS011;38381;53.688;10.776;2023-06-22T21:21:20;3.10;;;2.07;;
52468;SDS011;38381;53.688;10.776;2023-06-22T21:26:20;4.78;;;2.22;;
52468;SDS011;38381;53.688;10.776;2023-06-22T21:31:21;2.63;;;2.13;;
52468;SDS011;38381;53.688;10.776;2023-06-22T21:36:21;6.07;;;2.40;;
52468;SDS011;38381;53.688;10.776;2023-06-22T21:41:21;5.10;;;2.23;;
52468;SDS011;38381;53.688;10.776;2023-06-22T21:46:22;4.47;;;3.05;;
52468;SDS011;38381;53.688;10.776;2023-06-22T21:51:22;5.73;;;2.93;;
52468;SDS011;38381;53.688;10.776;2023-06-22T21:56:23;5.53;;;2.83;;
52468;SDS011;38381;53.688;10.776;2023-06-22T22:01:24;6.30;;;3.77;;
52468;SDS011;38381;53.688;10.776;2023-06-22T22:06:24;3.87;;;2.73;;
52468;SDS011;38381;53.688;10.776;2023-06-22T22:11:27;3.95;;;2.60;;
52468;SDS011;38381;53.688;10.776;2023-06-22T22:16:28;3.35;;;2.78;;
52468;SDS011;38381;53.688;10.776;2023-06-22T22:21:29;5.93;;;3.33;;
52468;SDS011;38381;53.688;10.776;2023-06-22T22:26:29;6.45;;;3.45;;
52468;SDS011;38381;53.688;10.776;2023-06-22T22:31:31;4.27;;;2.80;;
52468;SDS011;38381;53.688;10.776;2023-06-22T22:36:41;3.42;;;3.03;;
52468;SDS011;38381;53.688;10.776;2023-06-22T22:41:41;4.27;;;3.60;;
52468;SDS011;38381;53.688;10.776;2023-06-22T22:46:41;3.07;;;2.50;;
52468;SDS011;38381;53.688;10.776;2023-06-22T22:51:42;4.23;;;3.53;;
52468;SDS011;38381;53.688;10.776;2023-06-22T22:56:43;5.78;;;3.05;;
52468;SDS011;38381;53.688;10.776;2023-06-22T23:01:43;5.03;;;3.27;;
52468;SDS011;38381;53.688;10.776;2023-06-22T23:06:44;3.33;;;2.97;;
52468;SDS011;38381;53.688;10.776;2023-06-22T23:11:45;5.05;;;2.97;;
52468;SDS011;38381;53.688;10.776;2023-06-22T23:16:45;4.78;;;3.15;;
52468;SDS011;38381;53.688;10.776;2023-06-22T23:21:46;4.32;;;2.80;;
52468;SDS011;38381;53.688;10.776;2023-06-22T23:26:48;4.60;;;2.80;;
52468;SDS011;38381;53.688;10.776;2023-06-22T23:31:49;4.00;;;3.37;;
52468;SDS011;38381;53.688;10.776;2023-06-22T23:36:52;3.95;;;2.90;;
52468;SDS011;38381;53.688;10.776;2023-06-22T23:41:52;4.47;;;3.70;;
52468;SDS011;38381;53.688;10.776;2023-06-22T23:46:53;5.70;;;3.10;;
52468;SDS011;38381;53.688;10.776;2023-06-22T23:51:54;3.83;;;3.10;;
52468;SDS011;38381;53.688;10.776;2023-06-22T23:56:54;6.43;;;3.17;;
